createdAt,value
2022-08-09T00:00:46.234Z,39.97
2022-08-09T00:01:55.379Z,40.19
2022-08-09T00:02:57.880Z,39.81
2022-08-09T00:04:15.182Z,39.86
2022-08-09T00:06:17.860Z,39.74
2022-08-09T00:06:46.712Z,39.87
2022-08-09T00:07:49.072Z,39.53
2022-08-09T00:08:52.288Z,39.46
2022-08-09T00:09:59.525Z,39.43
2022-08-09T00:11:05.901Z,39.49
2022-08-09T00:12:24.370Z,39.57
2022-08-09T00:13:27.225Z,39.64
2022-08-09T00:14:36.445Z,39.93
2022-08-09T00:15:59.486Z,39.94
2022-08-09T00:17:03.481Z,40.13
2022-08-09T00:18:11.196Z,40.05
2022-08-09T00:19:14.632Z,40.04
2022-08-09T00:20:21.327Z,40.34
2022-08-09T00:21:24.203Z,40.24
2022-08-09T00:22:31.774Z,40.56
2022-08-09T00:23:57.103Z,40.50
2022-08-09T00:25:00.475Z,40.48
2022-08-09T00:26:08.140Z,40.55
2022-08-09T00:27:10.320Z,40.82
2022-08-09T00:28:12.840Z,41.09
2022-08-09T00:29:38.923Z,41.04
2022-08-09T00:30:41.587Z,41.43
2022-08-09T00:31:58.578Z,41.34
2022-08-09T00:33:02.911Z,41.48
2022-08-09T00:34:06.157Z,41.82
2022-08-09T00:35:08.739Z,41.77
2022-08-09T00:36:12.593Z,42.06
2022-08-09T00:37:16.285Z,42.23
2022-08-09T00:38:21.403Z,42.47
2022-08-09T00:40:14.203Z,42.66
2022-08-09T00:40:52.849Z,42.64
2022-08-09T00:44:09.846Z,43.27
2022-08-09T00:44:14.160Z,42.99
2022-08-09T00:44:42.245Z,43.29
2022-08-09T00:45:50.529Z,43.56
2022-08-09T00:47:04.631Z,43.61
2022-08-09T00:48:07.727Z,43.77
2022-08-09T00:49:17.742Z,43.62
2022-08-09T00:50:24.143Z,43.88
2022-08-09T00:51:26.506Z,43.86
2022-08-09T00:52:37.607Z,43.79
2022-08-09T00:53:40.555Z,43.92
2022-08-09T00:54:42.961Z,43.77
2022-08-09T00:56:05.552Z,43.81
2022-08-09T00:57:10.471Z,43.66
2022-08-09T00:58:14.762Z,43.79
2022-08-09T00:59:40.386Z,43.88
2022-08-09T01:00:43.839Z,43.95
2022-08-09T01:01:48.854Z,43.98
2022-08-09T01:02:58.195Z,44.05
2022-08-09T01:04:28.013Z,43.45
2022-08-09T01:05:58.489Z,43.77
2022-08-09T01:07:38.182Z,43.90
2022-08-09T01:09:19.071Z,43.29
2022-08-09T01:10:38.965Z,43.62
2022-08-09T01:11:53.097Z,44.06
2022-08-09T01:13:59.645Z,43.42
2022-08-09T01:15:06.012Z,43.60
2022-08-09T01:16:27.067Z,43.53
2022-08-09T01:17:35.832Z,43.61
2022-08-09T01:18:42.954Z,43.56
2022-08-09T01:20:09.763Z,43.46
2022-08-09T01:21:14.659Z,43.86
2022-08-09T01:22:40.115Z,43.33
2022-08-09T01:24:01.929Z,43.42
2022-08-09T01:25:19.039Z,43.76
2022-08-09T01:26:52.960Z,43.43
2022-08-09T01:27:57.843Z,43.64
2022-08-09T01:29:01.726Z,43.62
2022-08-09T01:30:28.741Z,43.86
2022-08-09T01:32:37.728Z,43.98
2022-08-09T01:33:00.198Z,44.17
2022-08-09T01:34:05.843Z,43.92
2022-08-09T01:35:38.001Z,44.05
2022-08-09T01:36:42.208Z,44.27
2022-08-09T01:38:10.222Z,44.17
2022-08-09T01:39:09.112Z,44.16
2022-08-09T01:40:23.228Z,44.26
2022-08-09T01:41:32.961Z,44.13
2022-08-09T01:42:38.248Z,44.60
2022-08-09T01:43:51.310Z,44.65
2022-08-09T01:44:55.846Z,44.68
2022-08-09T01:45:58.320Z,44.63
2022-08-09T01:47:02.745Z,44.56
2022-08-09T01:48:06.314Z,44.40
2022-08-09T01:49:15.559Z,44.82
2022-08-09T01:50:36.676Z,44.90
2022-08-09T01:51:44.474Z,44.74
2022-08-09T01:52:57.914Z,44.65
2022-08-09T01:54:02.227Z,44.74
2022-08-09T01:55:07.471Z,44.92
2022-08-09T01:56:12.660Z,44.92
2022-08-09T01:57:20.377Z,44.88
2022-08-09T01:58:24.481Z,44.83
2022-08-09T01:59:32.281Z,44.92
2022-08-09T02:00:36.343Z,44.72
2022-08-09T02:01:58.013Z,44.57
2022-08-09T02:03:05.291Z,44.65
2022-08-09T02:04:10.720Z,44.87
2022-08-09T02:05:16.197Z,44.86
2022-08-09T02:06:54.368Z,44.74
2022-08-09T02:08:41.014Z,44.56
2022-08-09T02:09:42.262Z,44.84
2022-08-09T02:10:51.751Z,44.54
2022-08-09T02:11:55.289Z,44.96
2022-08-09T02:13:04.140Z,44.93
2022-08-09T02:14:10.304Z,44.69
2022-08-09T02:15:20.046Z,44.84
2022-08-09T02:16:33.832Z,44.83
2022-08-09T02:18:01.214Z,44.73
2022-08-09T02:19:19.892Z,44.67
2022-08-09T02:20:26.254Z,44.61
2022-08-09T02:21:41.884Z,44.69
2022-08-09T02:22:51.510Z,44.46
2022-08-09T02:23:56.536Z,44.62
2022-08-09T02:25:04.076Z,44.55
2022-08-09T02:26:26.916Z,44.47
2022-08-09T02:27:57.293Z,44.45
2022-08-09T02:29:00.464Z,44.47
2022-08-09T02:30:03.460Z,44.08
2022-08-09T02:31:11.053Z,44.35
2022-08-09T02:32:18.745Z,44.24
2022-08-09T02:33:38.208Z,44.18
2022-08-09T02:34:59.087Z,43.96
2022-08-09T02:36:04.212Z,43.87
2022-08-09T02:37:12.378Z,43.91
2022-08-09T02:38:27.921Z,43.85
2022-08-09T02:39:41.867Z,44.00
2022-08-09T02:40:48.791Z,44.07
2022-08-09T02:42:00.464Z,43.99
2022-08-09T02:43:06.482Z,43.73
2022-08-09T02:44:29.458Z,43.91
2022-08-09T02:45:39.608Z,43.88
2022-08-09T02:46:45.906Z,44.00
2022-08-09T02:47:59.079Z,43.65
2022-08-09T02:49:07.178Z,43.79
2022-08-09T02:50:17.536Z,43.88
2022-08-09T02:51:22.791Z,43.78
2022-08-09T02:52:49.959Z,43.66
2022-08-09T02:54:00.852Z,43.73
2022-08-09T02:55:15.879Z,44.14
2022-08-09T02:56:27.930Z,44.20
2022-08-09T02:57:40.469Z,43.97
2022-08-09T02:58:55.838Z,43.76
2022-08-09T03:00:20.739Z,43.74
2022-08-09T03:01:29.334Z,43.78
2022-08-09T03:02:59.875Z,43.92
2022-08-09T03:04:16.553Z,43.93
2022-08-09T03:05:22.904Z,44.10
2022-08-09T03:06:27.471Z,43.92
2022-08-09T03:07:32.563Z,44.25
2022-08-09T03:08:38.539Z,44.29
2022-08-09T03:09:54.225Z,44.03
2022-08-09T03:11:01.794Z,43.97
2022-08-09T03:12:11.236Z,43.91
2022-08-09T03:13:16.941Z,44.07
2022-08-09T03:14:21.826Z,44.10
2022-08-09T03:16:04.599Z,43.98
2022-08-09T03:16:54.629Z,44.23
2022-08-09T03:18:02.684Z,44.07
2022-08-09T03:19:14.519Z,44.42
2022-08-09T03:20:38.072Z,44.20
2022-08-09T03:21:42.116Z,44.08
2022-08-09T03:22:56.908Z,44.22
2022-08-09T03:24:04.319Z,44.25
2022-08-09T03:25:26.516Z,44.38
2022-08-09T03:26:34.817Z,44.56
2022-08-09T03:27:51.093Z,44.54
2022-08-09T03:28:55.519Z,44.22
2022-08-09T03:30:01.468Z,44.50
2022-08-09T03:31:10.041Z,44.56
2022-08-09T03:32:13.610Z,44.58
2022-08-09T03:33:19.081Z,44.62
2022-08-09T03:34:22.245Z,44.42
2022-08-09T03:36:13.665Z,44.61
2022-08-09T03:36:58.262Z,44.63
2022-08-09T03:38:03.023Z,44.56
2022-08-09T03:39:05.651Z,44.88
2022-08-09T03:40:09.148Z,44.88
2022-08-09T03:41:18.423Z,44.79
2022-08-09T03:42:20.880Z,44.89
2022-08-09T03:43:33.183Z,44.87
2022-08-09T03:44:35.431Z,44.67
2022-08-09T03:46:04.593Z,44.85
2022-08-09T03:47:00.857Z,44.98
2022-08-09T03:48:03.673Z,44.64
2022-08-09T03:49:08.719Z,44.87
2022-08-09T03:50:14.262Z,44.92
2022-08-09T03:51:55.371Z,44.94
2022-08-09T03:52:46.077Z,45.02
2022-08-09T03:53:50.808Z,44.95
2022-08-09T03:54:54.335Z,45.38
2022-08-09T03:55:59.003Z,45.20
2022-08-09T03:57:17.972Z,45.31
2022-08-09T03:58:23.151Z,44.99
2022-08-09T03:59:27.665Z,45.04
2022-08-09T04:00:50.177Z,44.96
2022-08-09T04:01:53.715Z,45.12
2022-08-09T04:02:57.371Z,45.04
2022-08-09T04:04:03.913Z,45.20
2022-08-09T04:05:26.919Z,45.19
2022-08-09T04:06:30.527Z,45.08
2022-08-09T04:07:33.625Z,45.35
2022-08-09T04:08:49.374Z,45.16
2022-08-09T04:09:56.176Z,45.21
2022-08-09T04:11:01.690Z,45.27
2022-08-09T04:12:30.941Z,45.10
2022-08-09T04:14:37.524Z,45.21
2022-08-09T04:15:02.453Z,45.33
2022-08-09T04:16:20.632Z,45.22
2022-08-09T04:17:23.667Z,45.33
2022-08-09T04:18:25.897Z,45.16
2022-08-09T04:19:42.991Z,45.38
2022-08-09T04:20:54.193Z,45.36
2022-08-09T04:21:56.436Z,45.57
2022-08-09T04:23:00.137Z,45.51
2022-08-09T04:24:02.313Z,45.09
2022-08-09T04:25:06.152Z,45.27
2022-08-09T04:26:11.000Z,45.14
2022-08-09T04:27:13.166Z,45.58
2022-08-09T04:28:17.127Z,45.30
2022-08-09T04:29:36.599Z,45.25
2022-08-09T04:30:44.828Z,45.50
2022-08-09T04:31:47.705Z,45.37
2022-08-09T04:32:51.499Z,45.36
2022-08-09T04:33:57.059Z,45.78
2022-08-09T04:35:01.914Z,45.52
2022-08-09T04:36:07.039Z,45.47
2022-08-09T04:37:10.028Z,45.43
2022-08-09T04:38:12.285Z,45.53
2022-08-09T04:39:15.750Z,45.88
2022-08-09T04:40:35.872Z,45.37
2022-08-09T04:41:43.655Z,45.46
2022-08-09T04:42:46.257Z,45.84
2022-08-09T04:44:05.309Z,45.71
2022-08-09T04:45:10.193Z,45.75
2022-08-09T04:46:37.553Z,45.43
2022-08-09T04:47:45.197Z,45.72
2022-08-09T04:48:58.434Z,45.48
2022-08-09T04:50:00.676Z,45.56
2022-08-09T04:51:02.990Z,45.59
2022-08-09T04:52:07.507Z,45.66
2022-08-09T04:53:13.645Z,45.52
2022-08-09T04:54:16.027Z,45.57
2022-08-09T04:55:19.468Z,45.33
2022-08-09T04:56:26.114Z,45.58
2022-08-09T04:57:59.464Z,45.12
2022-08-09T04:58:51.201Z,45.19
2022-08-09T04:59:58.286Z,45.29
2022-08-09T05:01:03.312Z,45.06
2022-08-09T05:02:06.388Z,44.81
2022-08-09T05:03:13.341Z,44.73
2022-08-09T05:04:31.603Z,44.64
2022-08-09T05:05:51.966Z,44.54
2022-08-09T05:06:54.620Z,44.60
2022-08-09T05:07:58.463Z,44.43
2022-08-09T05:09:01.387Z,44.33
2022-08-09T05:10:04.406Z,44.22
2022-08-09T05:11:07.717Z,43.97
2022-08-09T05:12:11.095Z,44.10
2022-08-09T05:13:14.733Z,43.70
2022-08-09T05:14:19.674Z,43.61
2022-08-09T05:15:43.190Z,43.41
2022-08-09T05:16:58.803Z,43.21
2022-08-09T05:18:39.351Z,43.11
2022-08-09T05:19:26.027Z,43.08
2022-08-09T05:20:34.207Z,42.79
2022-08-09T05:21:46.481Z,42.63
2022-08-09T05:23:53.935Z,42.69
2022-08-09T05:24:12.845Z,42.13
2022-08-09T05:25:16.509Z,42.09
2022-08-09T05:26:36.202Z,41.75
2022-08-09T05:27:48.056Z,41.64
2022-08-09T05:28:52.086Z,41.24
2022-08-09T05:29:54.932Z,41.04
2022-08-09T05:30:57.170Z,40.88
2022-08-09T05:32:00.618Z,40.83
2022-08-09T05:33:02.976Z,40.67
2022-08-09T05:34:05.432Z,40.69
2022-08-09T05:35:08.765Z,40.13
2022-08-09T05:36:11.393Z,40.25
2022-08-09T05:37:18.431Z,39.96
2022-08-09T05:38:21.705Z,39.70
2022-08-09T05:39:28.927Z,39.55
2022-08-09T05:40:32.756Z,39.46
2022-08-09T05:41:34.931Z,39.00
2022-08-09T05:42:37.391Z,38.81
2022-08-09T05:43:44.933Z,38.84
2022-08-09T05:44:47.724Z,38.80
2022-08-09T05:45:57.145Z,38.68
2022-08-09T05:47:00.678Z,38.57
2022-08-09T05:48:03.022Z,38.18
2022-08-09T05:49:07.437Z,37.90
2022-08-09T05:50:50.507Z,37.86
2022-08-09T05:51:50.985Z,37.74
2022-08-09T05:52:55.108Z,37.49
2022-08-09T05:53:58.192Z,37.60
2022-08-09T05:55:03.088Z,37.41
2022-08-09T05:56:09.901Z,36.74
2022-08-09T05:57:19.045Z,36.93
2022-08-09T05:58:21.519Z,36.82
2022-08-09T05:59:23.776Z,36.63
2022-08-09T06:00:32.900Z,36.29
2022-08-09T06:01:42.576Z,35.94
2022-08-09T06:02:46.632Z,36.21
2022-08-09T06:03:54.692Z,35.37
2022-08-09T06:05:01.273Z,35.42
2022-08-09T06:06:05.691Z,35.19
2022-08-09T06:07:09.308Z,34.77
2022-08-09T06:08:11.872Z,34.53
2022-08-09T06:09:40.517Z,34.47
2022-08-09T06:10:39.351Z,33.86
2022-08-09T06:11:56.899Z,33.92
2022-08-09T06:13:11.829Z,33.77
2022-08-09T06:14:15.057Z,33.46
2022-08-09T06:15:17.826Z,33.66
2022-08-09T06:16:20.084Z,33.64
2022-08-09T06:17:22.294Z,33.13
2022-08-09T06:18:25.315Z,33.26
2022-08-09T06:19:28.136Z,33.15
2022-08-09T06:20:30.369Z,32.85
2022-08-09T06:21:32.644Z,32.55
2022-08-09T06:22:35.669Z,32.28
2022-08-09T06:23:57.554Z,32.24
2022-08-09T06:25:00.734Z,32.22
2022-08-09T06:26:02.969Z,32.12
2022-08-09T06:27:05.953Z,32.03
2022-08-09T06:28:08.869Z,32.20
2022-08-09T06:29:14.887Z,31.79
2022-08-09T06:30:17.591Z,32.20
2022-08-09T06:31:31.477Z,32.09
2022-08-09T06:32:59.509Z,32.14
2022-08-09T06:34:05.429Z,32.44
2022-08-09T06:35:08.186Z,32.05
2022-08-09T06:36:13.671Z,31.72
2022-08-09T06:37:16.074Z,31.68
2022-08-09T06:38:20.294Z,31.67
2022-08-09T06:39:57.910Z,31.52
2022-08-09T06:40:56.523Z,31.43
2022-08-09T06:42:09.217Z,31.35
2022-08-09T06:43:14.254Z,31.32
2022-08-09T06:44:18.006Z,31.29
2022-08-09T06:46:06.016Z,31.14
2022-08-09T06:46:45.557Z,31.51
2022-08-09T06:47:48.850Z,31.12
2022-08-09T06:49:04.544Z,31.09
2022-08-09T06:50:13.813Z,30.99
2022-08-09T06:51:17.232Z,30.85
2022-08-09T06:52:20.023Z,30.74
2022-08-09T06:53:26.100Z,30.88
2022-08-09T06:54:28.363Z,30.70
2022-08-09T06:55:33.136Z,30.69
2022-08-09T06:56:35.378Z,30.49
2022-08-09T06:58:01.241Z,30.70
2022-08-09T07:00:50.313Z,30.49
2022-08-09T07:00:53.776Z,30.55
2022-08-09T07:01:54.041Z,30.61
2022-08-09T07:03:00.418Z,30.66
2022-08-09T07:04:07.684Z,30.31
2022-08-09T07:05:15.824Z,30.51
2022-08-09T07:06:18.073Z,30.27
2022-08-09T07:07:59.084Z,30.23
2022-08-09T07:08:43.994Z,29.93
2022-08-09T07:09:54.832Z,30.04
2022-08-09T07:11:06.781Z,30.06
2022-08-09T07:12:17.369Z,29.73
2022-08-09T07:13:27.879Z,29.85
2022-08-09T07:14:31.569Z,29.74
2022-08-09T07:16:39.414Z,29.74
2022-08-09T07:16:58.491Z,29.63
2022-08-09T07:18:02.416Z,29.96
2022-08-09T07:19:06.451Z,29.97
2022-08-09T07:20:10.783Z,29.75
2022-08-09T07:21:14.242Z,29.46
2022-08-09T07:22:17.108Z,29.36
2022-08-09T07:23:20.373Z,29.46
2022-08-09T07:24:31.365Z,29.31
2022-08-09T07:25:42.610Z,29.30
2022-08-09T07:26:45.035Z,29.28
2022-08-09T07:27:55.638Z,28.98
2022-08-09T07:29:09.071Z,28.99
2022-08-09T07:30:15.715Z,28.92
2022-08-09T07:31:20.645Z,28.70
2022-08-09T07:32:33.302Z,28.80
2022-08-09T07:33:53.128Z,28.84
2022-08-09T07:34:58.358Z,28.32
2022-08-09T07:36:00.538Z,28.41
2022-08-09T07:37:03.953Z,28.22
2022-08-09T07:38:06.514Z,28.24
2022-08-09T07:39:11.891Z,28.18
2022-08-09T07:40:26.841Z,28.05
2022-08-09T07:41:32.903Z,28.20
2022-08-09T07:42:59.169Z,28.22
2022-08-09T07:44:01.600Z,27.60
2022-08-09T07:45:15.061Z,27.49
2022-08-09T07:46:27.870Z,26.98
2022-08-09T07:47:30.514Z,26.92
2022-08-09T07:48:58.876Z,26.65
2022-08-09T07:50:07.798Z,26.24
2022-08-09T07:52:03.583Z,25.92
2022-08-09T07:52:35.626Z,25.44
2022-08-09T07:54:05.618Z,25.61
2022-08-09T07:55:01.622Z,25.61
2022-08-09T07:56:26.780Z,25.52
2022-08-09T07:57:35.832Z,25.76
2022-08-09T07:58:38.482Z,25.23
2022-08-09T07:59:52.215Z,25.01
2022-08-09T08:01:06.551Z,24.89
2022-08-09T08:02:16.739Z,24.38
2022-08-09T08:03:22.129Z,24.35
2022-08-09T08:04:32.023Z,24.39
2022-08-09T08:05:54.016Z,23.96
2022-08-09T08:07:00.424Z,24.17
2022-08-09T08:09:01.540Z,24.09
2022-08-09T08:09:51.608Z,24.10
2022-08-09T08:11:15.269Z,23.74
2022-08-09T08:12:27.545Z,23.57
2022-08-09T08:13:40.015Z,22.90
2022-08-09T08:14:54.234Z,23.37
2022-08-09T08:15:56.700Z,23.20
2022-08-09T08:17:07.631Z,22.83
2022-08-09T08:18:12.033Z,22.71
2022-08-09T08:19:17.371Z,22.60
2022-08-09T08:20:29.401Z,22.44
2022-08-09T08:21:32.966Z,22.14
2022-08-09T08:22:35.193Z,22.25
2022-08-09T08:23:38.833Z,22.11
2022-08-09T08:24:48.634Z,22.16
2022-08-09T08:26:06.545Z,21.61
2022-08-09T08:27:16.869Z,21.52
2022-08-09T08:28:32.327Z,21.65
2022-08-09T08:29:39.537Z,21.33
2022-08-09T08:30:51.191Z,21.38
2022-08-09T08:32:02.243Z,21.37
2022-08-09T08:33:06.397Z,21.13
2022-08-09T08:34:14.302Z,20.83
2022-08-09T08:35:18.102Z,20.49
2022-08-09T08:36:28.229Z,20.42
2022-08-09T08:37:41.755Z,20.41
2022-08-09T08:38:54.565Z,20.55
2022-08-09T08:39:58.657Z,20.29
2022-08-09T08:41:06.179Z,19.85
2022-08-09T08:42:08.992Z,20.02
2022-08-09T08:43:13.643Z,20.17
2022-08-09T08:44:26.854Z,20.08
2022-08-09T08:45:37.207Z,19.68
2022-08-09T08:47:00.114Z,19.56
2022-08-09T08:48:05.386Z,19.47
2022-08-09T08:49:08.330Z,19.43
2022-08-09T08:50:18.294Z,19.56
2022-08-09T08:51:23.903Z,19.11
2022-08-09T08:52:57.864Z,18.99
2022-08-09T08:54:03.206Z,18.86
2022-08-09T08:55:07.878Z,18.80
2022-08-09T08:56:13.660Z,18.41
2022-08-09T08:57:28.931Z,18.72
2022-08-09T08:58:37.646Z,18.27
2022-08-09T08:59:44.638Z,18.76
2022-08-09T09:00:54.442Z,18.68
2022-08-09T09:01:59.943Z,18.40
2022-08-09T09:03:11.178Z,18.19
2022-08-09T09:04:27.218Z,18.40
2022-08-09T09:05:57.818Z,18.68
2022-08-09T09:06:57.112Z,18.51
2022-08-09T09:08:02.606Z,18.34
2022-08-09T09:09:20.669Z,18.34
2022-08-09T09:10:25.917Z,18.30
2022-08-09T09:11:31.058Z,18.27
2022-08-09T09:12:38.644Z,18.33
2022-08-09T09:13:56.620Z,17.99
2022-08-09T09:15:06.507Z,17.99
2022-08-09T09:16:10.092Z,17.97
2022-08-09T09:17:16.334Z,17.98
2022-08-09T09:18:18.893Z,17.63
2022-08-09T09:19:36.903Z,17.70
2022-08-09T09:20:45.595Z,17.51
2022-08-09T09:22:08.028Z,18.19
2022-08-09T09:23:14.237Z,17.92
2022-08-09T09:24:21.566Z,17.83
2022-08-09T09:26:01.987Z,18.31
2022-08-09T09:27:06.653Z,17.92
2022-08-09T09:28:11.570Z,17.40
2022-08-09T09:29:46.073Z,17.52
2022-08-09T09:30:57.198Z,17.69
2022-08-09T09:32:06.801Z,17.50
2022-08-09T09:33:18.248Z,17.57
2022-08-09T09:34:20.523Z,17.42
2022-08-09T09:35:24.325Z,17.21
2022-08-09T09:36:39.389Z,17.46
2022-08-09T09:37:53.784Z,17.51
2022-08-09T09:38:59.059Z,17.52
2022-08-09T09:40:02.696Z,16.94
2022-08-09T09:41:05.414Z,16.96
2022-08-09T09:42:24.261Z,16.88
2022-08-09T09:43:26.711Z,16.67
2022-08-09T09:44:43.351Z,16.57
2022-08-09T09:45:57.311Z,16.63
2022-08-09T09:47:16.812Z,16.42
2022-08-09T09:48:24.390Z,16.26
2022-08-09T09:49:49.720Z,16.18
2022-08-09T09:50:51.669Z,16.53
2022-08-09T09:52:06.786Z,16.72
2022-08-09T09:53:57.296Z,16.55
2022-08-09T09:54:55.731Z,16.46
2022-08-09T09:56:05.147Z,15.93
2022-08-09T09:58:03.460Z,16.86
2022-08-09T09:58:46.091Z,16.84
2022-08-09T09:59:52.247Z,16.55
2022-08-09T10:00:58.922Z,16.52
2022-08-09T10:02:03.899Z,16.20
2022-08-09T10:03:11.937Z,16.10
2022-08-09T10:04:23.127Z,16.39
2022-08-09T10:06:03.996Z,16.32
2022-08-09T10:06:55.136Z,16.11
2022-08-09T10:08:26.055Z,16.32
2022-08-09T10:09:29.572Z,16.35
2022-08-09T10:10:34.308Z,16.48
2022-08-09T10:12:00.950Z,16.24
2022-08-09T10:13:00.036Z,16.35
2022-08-09T10:14:03.694Z,16.18
2022-08-09T10:15:17.248Z,16.26
2022-08-09T10:16:57.702Z,16.18
2022-08-09T10:17:56.217Z,16.10
2022-08-09T10:19:07.045Z,16.33
2022-08-09T10:20:27.543Z,16.35
2022-08-09T10:21:48.811Z,16.55
2022-08-09T10:23:00.347Z,16.50
2022-08-09T10:24:04.965Z,16.61
2022-08-09T10:25:12.327Z,16.35
2022-08-09T10:26:19.547Z,16.82
2022-08-09T10:27:28.445Z,16.63
2022-08-09T10:28:38.818Z,16.88
2022-08-09T10:30:49.466Z,16.66
2022-08-09T10:32:27.800Z,17.09
2022-08-09T10:32:40.351Z,17.10
2022-08-09T10:34:10.035Z,17.06
2022-08-09T10:35:09.814Z,17.24
2022-08-09T10:36:14.521Z,17.16
2022-08-09T10:37:21.373Z,17.18
2022-08-09T10:38:54.537Z,17.46
2022-08-09T10:39:48.927Z,17.17
2022-08-09T10:40:52.276Z,17.27
2022-08-09T10:41:54.577Z,17.25
2022-08-09T10:42:57.353Z,17.70
2022-08-09T10:44:01.995Z,17.48
2022-08-09T10:45:12.006Z,17.59
2022-08-09T10:46:34.338Z,17.69
2022-08-09T10:48:19.382Z,17.69
2022-08-09T10:50:04.696Z,18.10
2022-08-09T10:51:15.523Z,17.79
2022-08-09T10:52:47.297Z,18.11
2022-08-09T10:53:54.701Z,17.95
2022-08-09T10:55:18.733Z,18.29
2022-08-09T10:56:24.164Z,18.23
2022-08-09T10:57:37.607Z,18.34
2022-08-09T10:58:43.325Z,18.56
2022-08-09T10:59:57.875Z,18.39
2022-08-09T11:03:06.758Z,18.46
2022-08-09T11:03:13.916Z,18.58
2022-08-09T11:04:27.973Z,18.65
2022-08-09T11:05:34.709Z,18.61
2022-08-09T11:06:44.697Z,18.64
2022-08-09T11:07:55.054Z,18.43
2022-08-09T11:09:16.051Z,18.74
2022-08-09T11:10:53.171Z,18.85
2022-08-09T11:12:05.027Z,18.90
2022-08-09T11:13:21.739Z,19.12
2022-08-09T11:15:18.661Z,19.33
2022-08-09T11:16:38.638Z,19.43
2022-08-09T11:17:42.061Z,19.42
2022-08-09T11:18:48.876Z,19.19
2022-08-09T11:20:11.673Z,19.03
2022-08-09T11:21:56.961Z,19.12
2022-08-09T11:23:10.372Z,19.04
2022-08-09T11:24:15.882Z,18.75
2022-08-09T11:25:36.221Z,18.96
2022-08-09T11:26:54.601Z,19.37
2022-08-09T11:28:07.927Z,18.96
2022-08-09T11:30:05.050Z,19.19
2022-08-09T11:31:43.308Z,19.21
2022-08-09T11:33:13.357Z,19.16
2022-08-09T11:34:27.473Z,19.12
2022-08-09T11:35:34.946Z,19.40
2022-08-09T11:36:51.733Z,19.04
2022-08-09T11:38:00.379Z,19.36
2022-08-09T11:39:04.996Z,19.33
2022-08-09T11:40:09.277Z,19.54
2022-08-09T11:41:16.086Z,19.35
2022-08-09T11:42:38.697Z,19.53
2022-08-09T11:43:46.917Z,19.31
2022-08-09T11:44:50.279Z,19.30
2022-08-09T11:45:57.886Z,19.18
2022-08-09T11:47:01.365Z,19.13
2022-08-09T11:48:26.781Z,19.10
2022-08-09T11:50:55.788Z,19.16
2022-08-09T11:53:03.729Z,19.26
2022-08-09T11:53:57.882Z,19.26
2022-08-09T11:54:30.155Z,18.97
2022-08-09T11:55:52.312Z,18.96
2022-08-09T11:57:47.950Z,19.42
2022-08-09T11:58:59.735Z,19.23
2022-08-09T12:00:15.839Z,19.06
2022-08-09T12:02:16.110Z,19.21
2022-08-09T12:02:54.318Z,19.40
2022-08-09T12:04:09.901Z,19.18
2022-08-09T12:05:42.166Z,19.41
2022-08-09T12:06:55.727Z,19.28
2022-08-09T12:07:59.580Z,19.51
2022-08-09T12:09:19.150Z,19.58
2022-08-09T12:10:39.648Z,19.27
2022-08-09T12:12:02.263Z,19.50
2022-08-09T12:14:09.053Z,19.18
2022-08-09T12:14:40.618Z,19.37
2022-08-09T12:16:29.228Z,19.28
2022-08-09T12:17:42.230Z,19.43
2022-08-09T12:18:53.861Z,19.56
2022-08-09T12:19:59.514Z,19.39
2022-08-09T12:21:26.481Z,19.44
2022-08-09T12:22:29.179Z,19.55
2022-08-09T12:23:58.671Z,19.43
2022-08-09T12:25:11.688Z,19.95
2022-08-09T12:26:19.705Z,19.83
2022-08-09T12:29:10.892Z,19.66
2022-08-09T12:29:14.956Z,19.78
2022-08-09T12:30:36.800Z,19.75
2022-08-09T12:32:01.881Z,20.35
2022-08-09T12:33:05.032Z,20.28
2022-08-09T12:34:07.239Z,20.06
2022-08-09T12:35:12.591Z,19.82
2022-08-09T12:36:31.359Z,19.95
2022-08-09T12:37:50.741Z,19.94
2022-08-09T12:38:55.204Z,20.13
2022-08-09T12:40:05.674Z,20.05
2022-08-09T12:41:08.351Z,20.08
2022-08-09T12:42:16.464Z,20.09
2022-08-09T12:43:21.536Z,20.04
2022-08-09T12:44:51.979Z,20.00
2022-08-09T12:46:00.742Z,20.41
2022-08-09T12:47:04.842Z,20.02
2022-08-09T12:48:30.914Z,20.38
2022-08-09T12:49:34.804Z,20.39
2022-08-09T12:50:39.765Z,20.13
2022-08-09T12:52:02.223Z,20.37
2022-08-09T12:53:17.837Z,20.14
2022-08-09T12:54:21.967Z,20.34
2022-08-09T12:56:11.503Z,20.58
2022-08-09T12:56:56.966Z,20.55
2022-08-09T12:58:11.656Z,20.37
2022-08-09T12:59:39.952Z,20.66
2022-08-09T13:00:53.118Z,20.13
2022-08-09T13:01:58.617Z,20.14
2022-08-09T13:03:05.397Z,20.22
2022-08-09T13:04:21.719Z,20.19
2022-08-09T13:05:51.633Z,20.35
2022-08-09T13:07:13.456Z,20.12
2022-08-09T13:08:39.656Z,20.02
2022-08-09T13:09:52.721Z,20.10
2022-08-09T13:11:13.338Z,20.22
2022-08-09T13:12:26.456Z,20.41
2022-08-09T13:14:42.181Z,20.24
2022-08-09T13:15:09.034Z,20.51
2022-08-09T13:16:15.906Z,20.33
2022-08-09T13:17:44.036Z,20.44
2022-08-09T13:18:53.518Z,20.62
2022-08-09T13:20:08.938Z,20.33
2022-08-09T13:22:38.314Z,20.60
2022-08-09T13:23:05.552Z,20.86
2022-08-09T13:24:53.839Z,20.88
2022-08-09T13:25:53.367Z,20.76
2022-08-09T13:26:58.753Z,20.90
2022-08-09T13:28:09.320Z,20.54
2022-08-09T13:29:28.606Z,20.99
2022-08-09T13:32:13.653Z,20.90
2022-08-09T13:32:45.821Z,20.64
2022-08-09T13:33:53.590Z,20.52
2022-08-09T13:34:56.299Z,20.48
2022-08-09T13:36:39.553Z,20.43
2022-08-09T13:37:50.856Z,20.33
2022-08-09T13:38:57.904Z,20.27
2022-08-09T13:41:50.483Z,20.28
2022-08-09T13:41:59.441Z,20.39
2022-08-09T13:42:50.141Z,20.13
2022-08-09T13:43:52.573Z,20.29
2022-08-09T13:44:55.428Z,20.23
2022-08-09T13:46:42.904Z,20.12
2022-08-09T13:47:33.537Z,20.33
2022-08-09T13:48:42.315Z,20.51
2022-08-09T13:49:57.879Z,20.44
2022-08-09T13:51:04.946Z,20.52
2022-08-09T13:52:11.597Z,20.62
2022-08-09T13:53:20.523Z,20.54
2022-08-09T13:54:59.380Z,20.48
2022-08-09T13:56:04.435Z,20.49
2022-08-09T13:57:14.439Z,20.68
2022-08-09T13:58:33.130Z,20.59
2022-08-09T13:59:37.065Z,20.72
2022-08-09T14:00:49.823Z,20.67
2022-08-09T14:02:01.202Z,20.79
2022-08-09T14:04:00.928Z,20.69
2022-08-09T14:04:27.772Z,20.82
2022-08-09T14:05:58.353Z,20.81
2022-08-09T14:07:03.818Z,20.52
2022-08-09T14:08:06.937Z,20.67
2022-08-09T14:09:12.630Z,20.70
2022-08-09T14:10:17.137Z,20.64
2022-08-09T14:11:41.330Z,20.99
2022-08-09T14:12:50.205Z,20.95
2022-08-09T14:14:24.888Z,20.93
2022-08-09T14:16:06.813Z,21.03
2022-08-09T14:16:38.014Z,20.89
2022-08-09T14:18:06.752Z,21.01
2022-08-09T14:19:04.731Z,21.15
2022-08-09T14:20:07.420Z,20.97
2022-08-09T14:21:09.618Z,20.86
2022-08-09T14:22:13.099Z,20.87
2022-08-09T14:23:20.251Z,20.90
2022-08-09T14:24:32.002Z,21.03
2022-08-09T14:25:42.891Z,21.08
2022-08-09T14:26:46.895Z,21.21
2022-08-09T14:27:58.762Z,21.03
2022-08-09T14:29:07.849Z,20.98
2022-08-09T14:30:36.298Z,21.28
2022-08-09T14:31:51.888Z,21.26
2022-08-09T14:32:55.589Z,21.09
2022-08-09T14:34:04.303Z,21.29
2022-08-09T14:35:11.047Z,20.92
2022-08-09T14:36:19.898Z,20.89
2022-08-09T14:37:28.560Z,21.19
2022-08-09T14:38:43.357Z,20.79
2022-08-09T14:39:48.361Z,21.07
2022-08-09T14:41:01.389Z,21.10
2022-08-09T14:42:06.695Z,21.16
2022-08-09T14:43:09.293Z,20.96
2022-08-09T14:44:32.523Z,21.02
2022-08-09T14:46:54.646Z,21.31
2022-08-09T14:47:12.502Z,21.11
2022-08-09T14:48:19.645Z,20.99
2022-08-09T14:49:23.718Z,20.98
2022-08-09T14:50:30.883Z,20.97
2022-08-09T14:51:42.418Z,20.80
2022-08-09T14:52:50.040Z,20.80
2022-08-09T14:53:56.081Z,20.91
2022-08-09T14:54:58.447Z,21.12
2022-08-09T14:56:00.784Z,21.07
2022-08-09T14:57:08.096Z,20.99
2022-08-09T14:58:11.307Z,20.83
2022-08-09T14:59:14.489Z,20.69
2022-08-09T15:00:17.661Z,20.53
2022-08-09T15:01:20.345Z,20.75
2022-08-09T15:02:22.978Z,20.45
2022-08-09T15:03:28.221Z,20.62
2022-08-09T15:04:30.417Z,20.78
2022-08-09T15:05:32.891Z,20.77
2022-08-09T15:06:35.675Z,20.82
2022-08-09T15:07:38.066Z,20.87
2022-08-09T15:08:45.979Z,21.09
2022-08-09T15:10:07.138Z,20.90
2022-08-09T15:11:13.654Z,21.05
2022-08-09T15:12:18.689Z,21.16
2022-08-09T15:13:22.513Z,21.37
2022-08-09T15:14:25.573Z,21.14
2022-08-09T15:15:39.068Z,20.99
2022-08-09T15:16:45.059Z,20.69
2022-08-09T15:17:53.264Z,21.00
2022-08-09T15:19:02.417Z,21.00
2022-08-09T15:20:11.788Z,20.91
2022-08-09T15:21:54.684Z,20.67
2022-08-09T15:22:46.448Z,20.88